Time;durP1;ratioP1;P1;durP2;ratioP2;P2;SDS_P1;SDS_P2;PMS_P1;PMS_P2;Temp;Humidity;BMP_temperature;BMP_pressure;BME280_temperature;BME280_humidity;BME280_pressure;Samples;Min_cycle;Max_cycle;Signal;HPM_P1;HPM_P2
2023/04/10 00:00:59;;;;;;;7.00;4.77;;;;;;;10.25;46.04;99987.59;5008917;28;20211;-81
2023/04/10 00:03:26;;;;;;;4.10;3.63;;;;;;;10.25;46.15;99987.59;5010950;28;20199;-81
2023/04/10 00:05:53;;;;;;;7.03;4.32;;;;;;;10.22;46.30;99995.66;5014597;28;20207;-81
2023/04/10 00:08:23;;;;;;;4.05;3.63;;;;;;;10.15;46.51;100000.41;5018093;28;20198;-80
2023/04/10 00:10:48;;;;;;;5.45;4.20;;;;;;;10.08;46.98;99991.19;5017984;28;20214;-81
2023/04/10 00:13:15;;;;;;;5.97;5.37;;;;;;;10.01;47.02;99995.06;5008854;28;20278;-81
2023/04/10 00:15:41;;;;;;;5.88;4.18;;;;;;;9.93;47.24;99992.84;5031902;28;20471;-81
2023/04/10 00:18:06;;;;;;;5.83;3.90;;;;;;;9.84;47.61;99989.91;5033346;28;20211;-80
2023/04/10 00:20:32;;;;;;;7.70;6.07;;;;;;;9.76;47.82;99992.94;5029957;28;20812;-80
2023/04/10 00:22:57;;;;;;;6.13;5.30;;;;;;;9.68;48.07;99987.25;5026397;28;20206;-81
2023/04/10 00:25:23;;;;;;;7.10;5.00;;;;;;;9.58;48.16;99976.41;5027740;28;20190;-80
2023/04/10 00:27:48;;;;;;;9.33;5.63;;;;;;;9.48;48.53;99977.84;5023575;28;20309;-81
2023/04/10 00:30:14;;;;;;;7.87;6.13;;;;;;;9.38;48.61;99974.84;5021933;28;20210;-80
2023/04/10 00:32:40;;;;;;;7.22;4.57;;;;;;;9.33;48.89;99976.88;5014669;28;20218;-80
2023/04/10 00:35:07;;;;;;;7.43;6.63;;;;;;;9.26;49.08;99975.47;5027946;28;20285;-81
2023/04/10 00:37:32;;;;;;;7.72;5.50;;;;;;;9.19;49.30;99977.59;5013208;28;20206;-81
2023/04/10 00:39:58;;;;;;;7.90;5.13;;;;;;;9.13;49.33;99972.69;5004294;28;20214;-81
2023/04/10 00:42:24;;;;;;;8.70;5.23;;;;;;;9.09;49.74;99973.75;5026437;28;20244;-81
2023/04/10 00:44:49;;;;;;;7.90;5.27;;;;;;;9.07;49.87;99976.47;5024695;28;20979;-81
2023/04/10 00:47:15;;;;;;;6.20;4.77;;;;;;;9.04;49.95;99976.59;5013098;28;20215;-81
2023/04/10 00:49:42;;;;;;;9.32;5.85;;;;;;;8.99;50.36;99977.75;5011205;28;20802;-81
2023/04/10 00:52:08;;;;;;;6.65;5.95;;;;;;;8.89;50.74;99979.19;5027932;28;20229;-81
2023/04/10 00:54:35;;;;;;;8.20;7.10;;;;;;;8.79;50.82;99970.94;5026231;28;20479;-81
2023/04/10 00:57:02;;;;;;;7.65;5.75;;;;;;;8.74;50.98;99965.06;5024742;28;20196;-81
2023/04/10 00:59:27;;;;;;;9.27;7.50;;;;;;;8.64;51.25;99975.13;5018313;28;20283;-81
2023/04/10 01:01:53;;;;;;;8.77;7.03;;;;;;;8.56;51.44;99972.94;5018375;28;20572;-81
2023/04/10 01:04:19;;;;;;;8.60;6.27;;;;;;;8.51;51.49;99969.69;5012678;28;20469;-81
2023/04/10 01:07:02;;;;;;;8.20;7.40;;;;;;;8.44;51.63;99968.28;5022022;28;20210;-81
2023/04/10 01:09:51;;;;;;;6.85;6.07;;;;;;;8.37;52.09;99972.94;5019898;28;20201;-81
2023/04/10 01:12:35;;;;;;;7.55;6.30;;;;;;;8.33;52.16;99973.16;5022829;28;20238;-81
2023/04/10 01:15:09;;;;;;;7.60;5.53;;;;;;;8.31;52.20;99977.63;5007472;28;20251;-81
2023/04/10 01:18:02;;;;;;;6.50;4.60;;;;;;;8.29;52.34;99976.84;5023135;28;21229;-81
2023/04/10 01:20:31;;;;;;;9.40;7.18;;;;;;;8.26;52.19;99969.13;5025630;28;20224;-81
2023/04/10 01:23:21;;;;;;;8.00;6.30;;;;;;;8.24;53.04;99986.72;5029389;28;20250;-81
2023/04/10 01:26:01;;;;;;;7.32;5.75;;;;;;;8.19;53.03;99985.16;5025201;28;20221;-82
2023/04/10 01:29:03;;;;;;;6.75;5.57;;;;;;;8.17;53.10;99984.34;5026469;28;20227;-81
2023/04/10 01:31:32;;;;;;;7.10;5.22;;;;;;;8.12;53.32;99985.50;5011842;28;20222;-81
2023/04/10 01:34:05;;;;;;;8.73;6.43;;;;;;;8.09;53.39;99990.88;5009893;28;20269;-81
2023/04/10 01:37:07;;;;;;;7.43;5.80;;;;;;;8.04;53.66;99978.00;5021942;28;20214;-81
2023/04/10 01:39:36;;;;;;;5.90;5.00;;;;;;;7.95;53.70;99974.06;5008352;28;20221;-81
2023/04/10 01:42:05;;;;;;;6.50;5.00;;;;;;;7.82;54.47;99977.34;5008309;28;20992;-81
2023/04/10 01:44:41;;;;;;;10.43;5.68;;;;;;;7.63;54.96;99975.56;5011777;28;20230;-81
2023/04/10 01:47:07;;;;;;;6.25;4.75;;;;;;;7.51;55.02;99978.75;5030399;28;20212;-81
2023/04/10 01:49:34;;;;;;;5.60;4.07;;;;;;;7.43;55.29;99973.84;5024728;28;20437;-82
2023/04/10 01:52:05;;;;;;;8.23;4.90;;;;;;;7.39;55.32;99980.13;5009608;28;20236;-81
2023/04/10 01:54:32;;;;;;;5.55;4.60;;;;;;;7.39;55.21;99974.91;5015307;28;20790;-81
2023/04/10 01:57:02;;;;;;;5.00;4.47;;;;;;;7.41;55.44;99977.44;5026831;28;20204;-81
2023/04/10 01:59:30;;;;;;;8.02;6.10;;;;;;;7.41;55.52;99985.28;5020175;28;20222;-81
2023/04/10 02:02:00;;;;;;;6.63;5.07;;;;;;;7.38;55.54;99983.66;5014205;28;20205;-81
2023/04/10 02:04:26;;;;;;;5.88;5.07;;;;;;;7.34;55.74;99974.25;5024400;28;20274;-81
2023/04/10 02:07:15;;;;;;;5.10;4.60;;;;;;;7.29;56.15;99978.81;5021407;28;20800;-82
2023/04/10 02:10:11;;;;;;;7.65;4.53;;;;;;;7.18;56.13;99976.69;5022049;28;20540;-81
2023/04/10 02:12:52;;;;;;;5.07;3.90;;;;;;;7.13;55.99;99976.06;5016992;28;20310;-81
2023/04/10 02:15:22;;;;;;;7.13;4.88;;;;;;;7.08;56.05;99985.84;5001147;28;20255;-81
2023/04/10 02:17:49;;;;;;;7.28;4.47;;;;;;;7.07;56.12;99981.53;5019293;28;20203;-81
2023/04/10 02:20:15;;;;;;;6.68;4.20;;;;;;;7.07;56.47;99985.03;4999276;28;20770;-81
2023/04/10 02:22:44;;;;;;;6.40;3.93;;;;;;;7.09;56.47;99992.78;5016141;28;20303;-81
2023/04/10 02:25:10;;;;;;;6.25;4.53;;;;;;;7.12;56.22;99983.94;5024815;28;20490;-82
2023/04/10 02:27:36;;;;;;;6.95;4.35;;;;;;;7.13;56.15;99975.19;5013388;28;20203;-82
2023/04/10 02:30:03;;;;;;;8.38;5.00;;;;;;;7.14;56.22;99974.28;5013122;28;20191;-82
2023/04/10 02:32:32;;;;;;;17.83;8.77;;;;;;;7.13;56.48;99976.06;5020242;28;20221;-81
2023/04/10 02:34:58;;;;;;;8.35;5.63;;;;;;;7.03;56.76;99988.66;5023083;28;20191;-81
2023/04/10 02:37:24;;;;;;;6.78;4.65;;;;;;;6.92;56.82;99979.59;5020509;28;20199;-82
2023/04/10 02:39:51;;;;;;;7.35;4.45;;;;;;;6.83;57.16;99981.69;5004559;28;20218;-81
2023/04/10 02:42:17;;;;;;;5.65;4.78;;;;;;;6.82;57.38;99987.81;5010893;28;21159;-81
2023/04/10 02:44:43;;;;;;;7.90;4.47;;;;;;;6.85;57.08;99985.06;5006704;28;20211;-81
2023/04/10 02:47:09;;;;;;;8.20;4.87;;;;;;;6.89;56.94;99990.19;5007323;28;20195;-81
2023/04/10 02:49:37;;;;;;;8.00;5.18;;;;;;;6.90;57.50;99986.66;5004530;28;20972;-81
2023/04/10 02:52:09;;;;;;;7.65;6.28;;;;;;;6.91;57.53;99989.16;5006215;28;20225;-81
2023/04/10 02:54:35;;;;;;;7.07;5.20;;;;;;;6.94;57.84;99988.19;4987594;28;20198;-81
2023/04/10 02:57:00;;;;;;;10.00;6.00;;;;;;;6.95;57.53;99989.91;5004476;28;20725;-81
2023/04/10 02:59:26;;;;;;;7.00;4.47;;;;;;;6.94;57.60;99989.06;5008387;28;20229;-81
2023/04/10 03:01:52;;;;;;;9.13;5.60;;;;;;;6.86;57.64;99980.72;5005989;28;20211;-81
2023/04/10 03:04:19;;;;;;;9.55;5.50;;;;;;;6.75;57.73;99973.34;5000791;28;20439;-81
2023/04/10 03:06:45;;;;;;;7.20;5.00;;;;;;;6.65;58.14;99966.78;5024149;28;20550;-81
2023/04/10 03:09:10;;;;;;;11.60;6.20;;;;;;;6.60;58.23;99971.34;4992384;28;20298;-81
2023/04/10 03:11:36;;;;;;;8.10;4.23;;;;;;;6.56;58.28;99968.03;5021804;28;20289;-81
2023/04/10 03:14:02;;;;;;;5.70;5.03;;;;;;;6.55;58.44;99963.69;5009837;28;20219;-81
2023/04/10 03:16:27;;;;;;;6.38;4.55;;;;;;;6.55;58.35;99955.03;4992934;28;20207;-81
2023/04/10 03:18:53;;;;;;;6.10;5.20;;;;;;;6.53;58.56;99944.63;4985764;28;20210;-81
2023/04/10 03:21:19;;;;;;;7.07;4.80;;;;;;;6.52;58.00;99950.78;4978264;28;20250;-82
2023/04/10 03:23:45;;;;;;;5.50;3.90;;;;;;;6.52;58.03;99944.72;4982093;28;20347;-81
2023/04/10 03:26:10;;;;;;;7.78;4.75;;;;;;;6.53;58.20;99943.78;4991284;28;20197;-81
2023/04/10 03:28:38;;;;;;;4.63;4.22;;;;;;;6.52;58.32;99942.94;4975814;28;20646;-81
2023/04/10 03:31:04;;;;;;;6.03;4.55;;;;;;;6.54;58.36;99942.91;4993374;28;20213;-81
2023/04/10 03:33:33;;;;;;;6.10;4.30;;;;;;;6.51;58.90;99936.03;4980066;28;20199;-81
2023/04/10 03:35:59;;;;;;;8.40;5.43;;;;;;;6.40;58.88;99941.72;4983113;28;20211;-82
2023/04/10 03:38:24;;;;;;;8.53;4.87;;;;;;;6.26;59.60;99932.72;4980216;28;20448;-81
2023/04/10 03:40:52;;;;;;;6.53;4.55;;;;;;;6.15;59.78;99936.63;4982786;28;20473;-81
2023/04/10 03:43:19;;;;;;;6.72;5.05;;;;;;;6.07;60.44;99940.44;4984236;28;20238;-81
2023/04/10 03:45:46;;;;;;;7.63;4.77;;;;;;;5.98;60.26;99931.25;4999396;28;21238;-82
2023/04/10 03:48:12;;;;;;;6.82;5.00;;;;;;;5.93;60.44;99931.41;4983034;28;20444;-81
2023/04/10 03:50:41;;;;;;;6.28;4.43;;;;;;;5.89;60.63;99934.19;4984453;28;20249;-81
2023/04/10 03:53:06;;;;;;;11.43;4.87;;;;;;;5.83;61.17;99934.41;4978528;28;20197;-81
2023/04/10 03:55:32;;;;;;;7.00;4.70;;;;;;;5.74;61.26;99943.44;4967104;28;20231;-81
2023/04/10 03:57:57;;;;;;;6.90;4.43;;;;;;;5.68;61.58;99939.31;4976889;28;20236;-81
2023/04/10 04:00:24;;;;;;;6.50;5.15;;;;;;;5.68;61.38;99941.91;4977720;28;20208;-81
2023/04/10 04:02:58;;;;;;;6.03;3.65;;;;;;;5.70;61.04;99944.47;4977128;28;20210;-81
2023/04/10 04:05:51;;;;;;;7.60;4.30;;;;;;;5.74;61.14;99946.88;4957499;28;20279;-81
2023/04/10 04:08:27;;;;;;;6.50;4.35;;;;;;;5.77;60.93;99946.75;4971447;28;20450;-81
2023/04/10 04:11:00;;;;;;;9.02;5.38;;;;;;;5.79;60.88;99951.09;4981742;28;20286;-81
2023/04/10 04:13:54;;;;;;;5.05;3.95;;;;;;;5.78;61.16;99942.44;4994166;28;20278;-81
2023/04/10 04:16:34;;;;;;;6.25;4.80;;;;;;;5.77;61.02;99951.97;5020999;28;20228;-81
2023/04/10 04:19:12;;;;;;;6.45;4.05;;;;;;;5.78;60.62;99945.03;5015667;28;20257;-81
2023/04/10 04:22:01;;;;;;;6.57;4.40;;;;;;;5.79;61.14;99946.72;5013258;28;20207;-82
2023/04/10 04:24:49;;;;;;;6.63;5.65;;;;;;;5.72;61.03;99948.69;5012488;28;20237;-81
2023/04/10 04:27:22;;;;;;;6.28;4.45;;;;;;;5.62;61.45;99941.31;5019782;28;20204;-82
2023/04/10 04:29:59;;;;;;;7.07;5.70;;;;;;;5.57;61.96;99940.63;5006421;28;20193;-82
2023/04/10 04:32:45;;;;;;;10.52;5.10;;;;;;;5.54;61.54;99939.84;5021042;28;20206;-81
2023/04/10 04:35:36;;;;;;;6.03;4.40;;;;;;;5.52;61.65;99943.41;5001710;28;20218;-82
2023/04/10 04:38:19;;;;;;;7.95;4.43;;;;;;;5.51;61.84;99944.31;5012137;28;20229;-81
2023/04/10 04:41:05;;;;;;;5.65;4.68;;;;;;;5.52;62.33;99949.47;5008123;28;20222;-81
2023/04/10 04:43:54;;;;;;;7.97;4.43;;;;;;;5.47;62.14;99948.78;5006104;28;20214;-81
2023/04/10 04:46:25;;;;;;;8.10;4.93;;;;;;;5.47;62.02;99953.16;5015534;28;20203;-81
2023/04/10 04:49:15;;;;;;;8.10;5.40;;;;;;;5.49;61.99;99946.13;5010259;28;20217;-84
2023/04/10 04:52:02;;;;;;;4.65;4.10;;;;;;;5.49;62.09;99951.34;5007324;28;20729;-83
2023/04/10 04:54:40;;;;;;;6.07;4.63;;;;;;;5.47;61.88;99951.38;5006768;28;20269;-83
2023/04/10 04:57:23;;;;;;;8.10;4.95;;;;;;;5.51;62.01;99950.38;4994356;28;20224;-83
2023/04/10 05:00:00;;;;;;;5.97;5.38;;;;;;;5.57;61.95;99956.28;5011349;28;20210;-81
2023/04/10 05:02:50;;;;;;;4.75;3.92;;;;;;;5.64;61.94;99962.94;5015705;28;20194;-82
2023/04/10 05:05:50;;;;;;;8.83;5.77;;;;;;;5.69;61.83;99953.19;4934583;29;20472;-82
2023/04/10 05:08:39;;;;;;;6.53;5.38;;;;;;;5.72;62.34;99958.28;5017967;28;20548;-82
2023/04/10 05:11:25;;;;;;;9.57;5.43;;;;;;;5.79;61.91;99959.75;5019079;28;20213;-81
2023/04/10 05:14:14;;;;;;;7.35;5.25;;;;;;;5.84;62.02;99959.59;5001068;28;20219;-80
2023/04/10 05:17:09;;;;;;;7.95;4.63;;;;;;;5.88;61.56;99964.59;4983816;28;20230;-81
2023/04/10 05:19:44;;;;;;;7.43;5.15;;;;;;;5.93;61.40;99962.69;4986239;28;20246;-82
2023/04/10 05:22:38;;;;;;;7.20;4.25;;;;;;;6.01;61.14;99969.38;4990340;28;20213;-81
2023/04/10 05:25:22;;;;;;;5.82;4.10;;;;;;;6.10;60.90;99974.22;5001711;28;20248;-81
2023/04/10 05:28:21;;;;;;;6.07;5.47;;;;;;;6.15;60.51;99964.47;4982596;28;20225;-80
2023/04/10 05:31:07;;;;;;;7.05;4.68;;;;;;;6.16;60.41;99972.25;4973371;28;20309;-81
2023/04/10 05:33:51;;;;;;;4.85;3.95;;;;;;;6.17;60.51;99965.25;5005309;28;20234;-80
2023/04/10 05:36:22;;;;;;;6.57;4.65;;;;;;;6.14;60.38;99960.16;5002590;28;20265;-79
2023/04/10 05:38:57;;;;;;;5.78;4.63;;;;;;;6.06;60.51;99963.06;4984670;28;20237;-81
2023/04/10 05:41:35;;;;;;;5.57;4.20;;;;;;;6.01;60.68;99958.94;4984397;28;20295;-82
2023/04/10 05:44:33;;;;;;;5.43;4.38;;;;;;;5.96;60.82;99964.34;4961549;28;20227;-80
2023/04/10 05:47:24;;;;;;;6.50;4.63;;;;;;;5.97;60.47;99960.84;4980053;28;20649;-80
2023/04/10 05:50:13;;;;;;;7.90;4.38;;;;;;;6.05;60.28;99968.34;4994493;28;20255;-79
2023/04/10 05:52:54;;;;;;;7.75;4.93;;;;;;;6.09;60.28;99980.38;4983977;28;20215;-80
2023/04/10 05:55:40;;;;;;;5.30;4.43;;;;;;;6.14;60.05;99981.03;4995868;28;20226;-79
2023/04/10 05:58:25;;;;;;;7.07;4.88;;;;;;;6.26;59.80;99980.53;4970453;28;20303;-79
2023/04/10 06:01:10;;;;;;;4.57;3.95;;;;;;;6.50;59.23;99981.31;4995474;28;20267;-79
2023/04/10 06:03:47;;;;;;;6.05;4.18;;;;;;;6.89;58.77;99980.56;4975618;28;20951;-79
2023/04/10 06:06:15;;;;;;;4.78;4.03;;;;;;;7.38;57.75;99964.53;4974222;28;20213;-79
2023/04/10 06:08:40;;;;;;;5.43;4.57;;;;;;;7.98;56.46;99960.84;4992270;28;20213;-79
2023/04/10 06:11:06;;;;;;;6.03;4.90;;;;;;;8.69;55.14;99962.66;4991832;28;20204;-79
2023/04/10 06:13:32;;;;;;;7.17;4.60;;;;;;;9.35;53.67;99956.66;5015662;28;20230;-79
2023/04/10 06:15:58;;;;;;;6.60;5.00;;;;;;;9.93;52.63;99956.13;5006998;28;20266;-80
2023/04/10 06:18:23;;;;;;;5.70;5.10;;;;;;;10.51;51.64;99952.03;5005075;28;20206;-80
2023/04/10 06:20:49;;;;;;;4.80;4.20;;;;;;;11.13;50.23;99954.50;5000008;28;21196;-81
2023/04/10 06:23:14;;;;;;;6.17;4.50;;;;;;;11.82;49.18;99962.53;4999174;28;20202;-81
2023/04/10 06:25:40;;;;;;;4.40;4.00;;;;;;;12.41;47.97;99965.78;5000891;28;20205;-79
2023/04/10 06:28:06;;;;;;;4.65;4.05;;;;;;;12.83;46.96;99961.25;4997766;28;20615;-80
2023/04/10 06:30:33;;;;;;;4.17;3.83;;;;;;;13.20;46.25;99958.72;5018978;28;20281;-81
2023/04/10 06:32:59;;;;;;;6.15;4.88;;;;;;;13.32;45.85;99957.94;4994164;28;20202;-82
2023/04/10 06:35:26;;;;;;;5.50;4.77;;;;;;;13.15;45.87;99963.47;5019407;28;20264;-81
2023/04/10 06:37:51;;;;;;;7.00;4.43;;;;;;;12.69;46.33;99954.28;5018234;28;20198;-80
2023/04/10 06:40:16;;;;;;;6.70;4.60;;;;;;;12.16;47.03;99953.38;4996845;28;20628;-80
2023/04/10 06:42:42;;;;;;;4.73;4.20;;;;;;;11.66;47.88;99963.50;5020811;28;20212;-80
2023/04/10 06:45:13;;;;;;;4.88;4.05;;;;;;;11.30;48.75;99971.88;4996870;28;20201;-80
2023/04/10 06:47:39;;;;;;;4.80;3.60;;;;;;;10.95;48.86;99966.13;5017071;28;20198;-80
2023/04/10 06:50:04;;;;;;;9.00;4.13;;;;;;;10.62;49.48;99962.75;5019616;28;20210;-80
2023/04/10 06:52:31;;;;;;;6.10;3.13;;;;;;;10.44;49.57;99961.19;5026121;28;20518;-80
2023/04/10 06:54:57;;;;;;;7.55;5.13;;;;;;;10.29;49.86;99973.41;5027645;28;20222;-81
2023/04/10 06:57:22;;;;;;;5.23;4.67;;;;;;;10.14;49.80;99964.56;5027834;28;20198;-79
2023/04/10 06:59:47;;;;;;;5.60;4.37;;;;;;;10.05;49.91;99964.25;5017143;28;20301;-81
2023/04/10 07:02:13;;;;;;;7.87;5.40;;;;;;;9.96;49.95;99966.47;5018671;28;20210;-82
2023/04/10 07:04:38;;;;;;;8.03;4.40;;;;;;;9.91;50.09;99970.25;4996903;28;20674;-82
2023/04/10 07:07:08;;;;;;;6.10;4.80;;;;;;;9.86;50.41;99964.44;5016825;28;20206;-81
2023/04/10 07:09:33;;;;;;;9.82;5.75;;;;;;;9.86;50.19;99969.69;5017409;28;20201;-80
2023/04/10 07:11:59;;;;;;;8.03;5.10;;;;;;;9.86;50.49;99964.44;5017211;28;21226;-81
2023/04/10 07:14:24;;;;;;;7.97;5.67;;;;;;;9.83;50.82;99965.44;5018422;28;20819;-80
2023/04/10 07:16:50;;;;;;;6.03;5.43;;;;;;;9.74;50.76;99963.31;5017188;28;20234;-79
2023/04/10 07:19:15;;;;;;;7.27;5.73;;;;;;;9.75;50.98;99962.41;5015714;28;20200;-80
2023/04/10 07:21:40;;;;;;;5.20;4.43;;;;;;;9.80;50.87;99962.97;5018267;28;20794;-81
2023/04/10 07:24:06;;;;;;;5.27;4.03;;;;;;;9.84;50.57;99956.63;5018785;28;20256;-80
2023/04/10 07:26:31;;;;;;;6.87;4.93;;;;;;;9.94;50.58;99957.00;5018082;28;20226;-80
2023/04/10 07:28:57;;;;;;;5.07;4.57;;;;;;;10.32;49.94;99962.72;5016693;28;20256;-80
2023/04/10 07:31:22;;;;;;;6.87;5.13;;;;;;;11.12;48.58;99951.94;5016496;28;20572;-79
2023/04/10 07:33:48;;;;;;;6.17;4.80;;;;;;;12.07;46.50;99949.56;5016679;28;20198;-80
2023/04/10 07:36:14;;;;;;;5.23;4.20;;;;;;;13.11;44.44;99943.56;5018201;28;20206;-80
2023/04/10 07:38:40;;;;;;;4.97;4.30;;;;;;;14.03;42.88;99937.91;5015034;28;20449;-80
2023/04/10 07:41:06;;;;;;;5.47;3.85;;;;;;;14.76;41.36;99939.56;5017923;28;20214;-80
2023/04/10 07:43:31;;;;;;;4.50;4.10;;;;;;;15.42;40.07;99936.31;5019523;28;20222;-80
2023/04/10 07:45:56;;;;;;;5.90;4.43;;;;;;;15.70;39.47;99935.81;5017045;28;20202;-80
2023/04/10 07:48:22;;;;;;;4.83;3.80;;;;;;;16.17;38.55;99934.75;5018033;28;20200;-79
2023/04/10 07:50:48;;;;;;;4.33;3.60;;;;;;;16.59;37.81;99933.03;5015994;28;20198;-81
2023/04/10 07:53:13;;;;;;;6.07;4.23;;;;;;;16.95;37.06;99929.09;5019271;28;20210;-80
2023/04/10 07:55:41;;;;;;;4.80;3.63;;;;;;;17.24;36.45;99923.94;5021463;28;20198;-80
2023/04/10 07:58:07;;;;;;;;;;;;;;;17.59;35.87;99925.34;5018097;28;20132;-80
2023/04/10 08:00:33;;;;;;;4.17;3.00;;;;;;;17.98;34.96;99929.94;5015344;28;20211;-80
2023/04/10 08:02:58;;;;;;;5.80;4.00;;;;;;;18.17;33.86;99914.00;5016228;28;20202;-82
2023/04/10 08:05:24;;;;;;;4.70;4.30;;;;;;;18.31;33.80;99915.44;5019542;28;20446;-81
2023/04/10 08:07:49;;;;;;;5.40;4.20;;;;;;;18.45;33.60;99911.53;5021396;28;20209;-80
2023/04/10 08:10:15;;;;;;;5.47;3.77;;;;;;;18.69;33.22;99908.41;5017728;28;20728;-80
2023/04/10 08:12:40;;;;;;;4.43;4.03;;;;;;;19.01;32.93;99908.09;5017480;28;20222;-81
2023/04/10 08:15:06;;;;;;;6.40;4.13;;;;;;;19.26;32.27;99901.28;5018200;28;20687;-80
2023/04/10 08:17:31;;;;;;;4.80;3.70;;;;;;;19.38;32.02;99902.75;5021187;28;20194;-80
2023/04/10 08:19:57;;;;;;;5.90;3.80;;;;;;;19.58;31.77;99906.19;5010387;28;20215;-81
2023/04/10 08:22:22;;;;;;;5.60;4.90;;;;;;;19.89;31.24;99903.22;5008327;28;20208;-80
2023/04/10 08:24:48;;;;;;;7.37;4.50;;;;;;;20.04;31.11;99900.88;5019469;28;20198;-80
2023/04/10 08:27:15;;;;;;;4.90;4.20;;;;;;;20.32;30.58;99896.31;4993432;28;20590;-82
2023/04/10 08:29:40;;;;;;;4.63;4.07;;;;;;;20.48;30.07;99888.44;5016751;28;20199;-80
2023/04/10 08:32:06;;;;;;;5.00;4.10;;;;;;;20.28;30.05;99898.44;5016907;28;20210;-80
2023/04/10 08:34:31;;;;;;;5.30;4.80;;;;;;;20.16;29.98;99898.81;5020263;28;20599;-81
2023/04/10 08:36:57;;;;;;;4.83;4.43;;;;;;;20.11;30.01;99899.28;5020829;28;20208;-80
2023/04/10 08:39:22;;;;;;;5.43;4.40;;;;;;;20.07;29.88;99896.09;5019271;28;20199;-81
2023/04/10 08:41:48;;;;;;;4.60;4.17;;;;;;;20.09;29.89;99887.91;5022115;28;20291;-80
2023/04/10 08:44:13;;;;;;;4.90;4.43;;;;;;;20.09;30.02;99893.25;5023173;28;20197;-80
2023/04/10 08:46:42;;;;;;;6.00;3.63;;;;;;;19.96;29.84;99888.31;5026056;28;20205;-80
2023/04/10 08:49:11;;;;;;;5.03;4.25;;;;;;;19.63;30.47;99897.72;5022674;28;20323;-80
2023/04/10 08:51:50;;;;;;;5.70;4.90;;;;;;;19.29;30.87;99889.50;5020860;28;20218;-80
2023/04/10 08:54:26;;;;;;;4.40;4.00;;;;;;;19.04;31.15;99896.28;5019315;28;20671;-79
2023/04/10 08:56:54;;;;;;;4.95;3.97;;;;;;;18.85;31.46;99890.06;5022216;28;20197;-79
2023/04/10 08:59:19;;;;;;;7.30;4.88;;;;;;;18.67;31.96;99886.44;5021881;28;20201;-80
2023/04/10 09:01:46;;;;;;;6.00;5.40;;;;;;;18.65;32.03;99889.22;5024263;28;20214;-79
2023/04/10 09:04:12;;;;;;;4.53;4.13;;;;;;;18.47;32.35;99889.13;5018088;28;20206;-80
2023/04/10 09:06:38;;;;;;;4.93;4.25;;;;;;;18.12;32.81;99889.69;5019975;28;20210;-79
2023/04/10 09:09:05;;;;;;;6.80;4.17;;;;;;;17.84;33.48;99889.50;5003045;28;20261;-80
2023/04/10 09:12:02;;;;;;;4.70;4.20;;;;;;;17.53;34.11;99886.06;5022190;28;20203;-80
2023/04/10 09:14:32;;;;;;;5.05;4.55;;;;;;;17.61;34.17;99888.03;5001096;28;20217;-80
2023/04/10 09:17:16;;;;;;;4.78;4.25;;;;;;;17.78;34.12;99881.22;5021709;28;20217;-79
2023/04/10 09:19:43;;;;;;;6.05;5.32;;;;;;;18.02;34.07;99872.88;5021640;28;20241;-81
2023/04/10 09:22:09;;;;;;;5.47;5.00;;;;;;;18.15;33.97;99860.16;5019545;28;20261;-80
2023/04/10 09:24:37;;;;;;;6.17;4.33;;;;;;;18.13;33.91;99859.44;5020339;28;20789;-80
2023/04/10 09:27:02;;;;;;;5.68;4.55;;;;;;;18.16;33.85;99853.84;5019629;28;20191;-80
2023/04/10 09:29:42;;;;;;;6.03;4.90;;;;;;;18.13;34.13;99857.63;5019896;28;20209;-80
2023/04/10 09:32:07;;;;;;;7.45;4.53;;;;;;;18.03;34.29;99848.81;5020532;28;20209;-82
2023/04/10 09:34:33;;;;;;;5.13;4.63;;;;;;;18.03;34.49;99843.50;5019846;28;20210;-81
2023/04/10 09:37:02;;;;;;;4.70;4.13;;;;;;;17.96;34.62;99849.50;5023505;28;20204;-81
2023/04/10 09:39:39;;;;;;;4.93;3.97;;;;;;;18.14;34.38;99839.84;5020233;28;20217;-80
2023/04/10 09:42:05;;;;;;;5.35;4.10;;;;;;;18.32;34.13;99842.66;5023547;28;20229;-81
2023/04/10 09:44:36;;;;;;;3.97;3.57;;;;;;;18.34;33.84;99844.19;5029200;28;20208;-79
2023/04/10 09:47:13;;;;;;;5.88;4.40;;;;;;;18.40;33.82;99847.28;5028762;28;20303;-80
2023/04/10 09:50:01;;;;;;;4.80;4.00;;;;;;;18.39;34.23;99834.94;5027963;28;20213;-81
2023/04/10 09:52:28;;;;;;;4.77;4.17;;;;;;;18.15;34.35;99830.91;5006061;28;20210;-81
2023/04/10 09:54:56;;;;;;;4.70;4.30;;;;;;;17.90;34.85;99825.19;5025864;28;20460;-80
2023/04/10 09:57:23;;;;;;;4.10;3.70;;;;;;;17.89;34.91;99830.63;5028374;28;20201;-80
2023/04/10 09:59:53;;;;;;;3.78;3.47;;;;;;;17.94;35.16;99823.06;5024530;28;20476;-81
2023/04/10 10:02:24;;;;;;;5.50;4.45;;;;;;;18.00;35.01;99816.38;5024508;28;20255;-79
2023/04/10 10:04:51;;;;;;;4.00;3.60;;;;;;;17.89;34.98;99820.00;5025112;28;20184;-80
2023/04/10 10:07:22;;;;;;;5.20;4.03;;;;;;;17.89;35.41;99798.72;5027643;28;20483;-80
2023/04/10 10:09:49;;;;;;;4.30;3.10;;;;;;;17.88;35.47;99803.22;5026533;28;20222;-80
2023/04/10 10:12:28;;;;;;;6.10;4.38;;;;;;;18.03;35.21;99802.78;5025950;28;20502;-80
2023/04/10 10:15:13;;;;;;;4.27;3.87;;;;;;;18.20;35.22;99790.59;5025214;28;20208;-80
2023/04/10 10:17:50;;;;;;;4.30;3.90;;;;;;;18.26;35.22;99792.69;5028422;28;20459;-80
2023/04/10 10:20:18;;;;;;;7.20;4.03;;;;;;;18.35;35.24;99783.84;5025243;28;20474;-80
2023/04/10 10:22:45;;;;;;;3.70;3.10;;;;;;;18.52;35.28;99784.94;5027086;28;20463;-80
2023/04/10 10:25:12;;;;;;;4.20;3.73;;;;;;;18.77;34.81;99783.50;5026444;28;20455;-80
2023/04/10 10:27:40;;;;;;;5.53;3.83;;;;;;;18.92;34.72;99781.19;5024193;28;20474;-80
2023/04/10 10:30:08;;;;;;;7.90;3.73;;;;;;;18.98;34.39;99785.91;5025162;28;20467;-81
2023/04/10 10:32:33;;;;;;;4.30;3.87;;;;;;;19.01;34.59;99778.50;5025778;28;20607;-80
2023/04/10 10:35:01;;;;;;;4.10;3.23;;;;;;;18.99;34.64;99776.97;5025561;28;20461;-81
2023/04/10 10:37:28;;;;;;;4.77;3.87;;;;;;;19.05;34.02;99771.03;5023328;28;20197;-81
2023/04/10 10:39:56;;;;;;;3.77;3.10;;;;;;;19.12;34.18;99777.44;5028383;28;20483;-80
2023/04/10 10:42:33;;;;;;;5.20;3.47;;;;;;;19.17;33.96;99775.19;5029065;28;20500;-81
2023/04/10 10:45:04;;;;;;;3.30;2.80;;;;;;;19.22;33.69;99762.22;5028033;28;20460;-80
2023/04/10 10:47:33;;;;;;;3.97;3.37;;;;;;;19.23;33.25;99765.75;5023276;28;20502;-79
2023/04/10 10:50:00;;;;;;;3.70;2.90;;;;;;;19.21;33.03;99755.25;5023138;28;20527;-79
2023/04/10 10:52:41;;;;;;;3.60;3.20;;;;;;;19.19;33.02;99764.38;5022145;28;20475;-79
2023/04/10 10:55:30;;;;;;;5.70;3.47;;;;;;;19.17;32.75;99758.34;5021894;28;20466;-80
2023/04/10 10:58:00;;;;;;;3.03;2.73;;;;;;;19.22;32.50;99746.25;5016222;28;20457;-80
2023/04/10 11:00:48;;;;;;;3.00;2.57;;;;;;;19.29;32.31;99743.84;5021706;28;20468;-81
2023/04/10 11:03:14;;;;;;;3.90;2.93;;;;;;;19.42;32.18;99741.66;5020398;28;20495;-80
2023/04/10 11:05:57;;;;;;;5.50;3.50;;;;;;;19.40;32.31;99745.47;5020116;28;20556;-80
2023/04/10 11:08:32;;;;;;;3.47;3.27;;;;;;;19.31;31.94;99743.69;5024748;28;20202;-81
2023/04/10 11:11:02;;;;;;;3.93;2.73;;;;;;;19.23;32.35;99737.31;5026658;28;20550;-81
2023/04/10 11:13:28;;;;;;;2.63;2.20;;;;;;;19.25;32.28;99745.13;5035962;28;21420;-81
2023/04/10 11:15:58;;;;;;;3.20;2.77;;;;;;;19.30;32.01;99740.19;5031185;28;21702;-81
2023/04/10 11:18:49;;;;;;;2.93;2.60;;;;;;;19.43;31.97;99740.66;5038150;28;20297;-82
2023/04/10 11:21:22;;;;;;;4.57;4.13;;;;;;;19.61;31.86;99735.34;5034915;28;20476;-82
2023/04/10 11:23:56;;;;;;;3.50;3.20;;;;;;;19.77;31.63;99731.19;5032324;28;20487;-80
2023/04/10 11:29:00;;;;;;;3.60;3.30;;;;;;;19.88;31.65;99723.78;5033215;28;20453;-80
2023/04/10 11:31:26;;;;;;;3.60;2.70;;;;;;;19.82;32.07;99726.19;5034204;28;20460;-81
2023/04/10 11:34:02;;;;;;;4.13;3.80;;;;;;;19.77;32.62;99715.19;5028326;28;20469;-81
2023/04/10 11:36:28;;;;;;;3.10;2.80;;;;;;;19.82;32.65;99713.75;5025946;28;20453;-80
2023/04/10 11:39:01;;;;;;;3.70;3.10;;;;;;;19.84;32.50;99713.56;5028518;28;20471;-81
2023/04/10 11:41:35;;;;;;;3.00;2.70;;;;;;;19.81;32.74;99716.53;5040067;28;20213;-80
2023/04/10 11:44:03;;;;;;;3.30;3.00;;;;;;;19.76;32.78;99717.00;5043899;28;20539;-81
2023/04/10 11:46:30;;;;;;;3.60;2.83;;;;;;;19.64;32.66;99715.56;5027892;28;20873;-80
2023/04/10 11:49:03;;;;;;;3.87;2.70;;;;;;;19.64;32.95;99721.72;5028223;28;20928;-81
2023/04/10 11:51:30;;;;;;;5.03;3.10;;;;;;;19.59;32.69;99721.31;5029791;28;20460;-81
2023/04/10 11:54:18;;;;;;;4.03;3.07;;;;;;;19.58;32.95;99711.66;5025084;28;20468;-80
2023/04/10 11:56:57;;;;;;;4.43;3.43;;;;;;;19.74;32.78;99723.47;5022414;28;20449;-80
2023/04/10 11:59:23;;;;;;;3.37;3.07;;;;;;;19.83;32.80;99717.25;5024254;28;20898;-80
2023/04/10 12:01:52;;;;;;;3.73;3.33;;;;;;;19.89;32.71;99711.28;5023947;28;20776;-80